CCA905 ZPPP-VYYY
Flight info
| Callsign | CCA905 |
|---|---|
| Flight time | 1h 45m |
| Altitude | 36100 |
| Route | K0872S1100 GULOT9Y GULOT/K0863S1160 A599 LINSO/N0465F380 A599 LSO DCT BAGOO DCT |
| Aircraft | B38M/M-SDE1FGHILORVWXY/HB1 |
Departure
| Time | 2026-05-03 20:48 |
|---|---|
| Airport | Kunming Changshui International Airport (ZPPP) |
Arrival
| Time | 2026-05-03 22:33 |
|---|---|
| Airport | Yangon International Airport (VYYY) |
| Time | Latitude | Longitude | Altitude | Speed | Heading |
|---|---|---|---|---|---|
| 2026-05-03 20:27 | 25.10617 | 102.93006 | 6904 ft | 0 kts | 252° |
| 2026-05-03 20:34 | 25.10619 | 102.93014 | 6918 ft | 2 kts | 252° |
| 2026-05-03 20:35 | 25.10624 | 102.93029 | 6912 ft | 2 kts | 252° |
| 2026-05-03 20:35 | 25.10628 | 102.93045 | 6915 ft | 2 kts | 252° |
| 2026-05-03 20:35 | 25.10633 | 102.93061 | 6912 ft | 2 kts | 252° |
| 2026-05-03 20:35 | 25.10638 | 102.93077 | 6913 ft | 2 kts | 252° |
| 2026-05-03 20:36 | 25.10642 | 102.93092 | 6904 ft | 2 kts | 252° |
| 2026-05-03 20:36 | 25.10647 | 102.93108 | 6903 ft | 2 kts | 253° |
| 2026-05-03 20:36 | 25.10648 | 102.93124 | 6903 ft | 2 kts | 270° |
| 2026-05-03 20:36 | 25.10646 | 102.93140 | 6903 ft | 2 kts | 290° |
| 2026-05-03 20:37 | 25.10639 | 102.93153 | 6903 ft | 0 kts | 310° |
| 2026-05-03 20:40 | 25.10643 | 102.93148 | 6903 ft | 2 kts | 309° |
| 2026-05-03 20:40 | 25.10664 | 102.93118 | 6903 ft | 8 kts | 309° |
| 2026-05-03 20:40 | 25.10719 | 102.93083 | 6909 ft | 10 kts | 339° |
| 2026-05-03 20:40 | 25.10784 | 102.93057 | 6917 ft | 10 kts | 341° |
| 2026-05-03 20:41 | 25.10841 | 102.93017 | 6905 ft | 10 kts | 313° |
| 2026-05-03 20:41 | 25.10883 | 102.92960 | 6908 ft | 10 kts | 309° |
| 2026-05-03 20:41 | 25.10925 | 102.92903 | 6907 ft | 10 kts | 308° |
| 2026-05-03 20:41 | 25.10966 | 102.92845 | 6918 ft | 10 kts | 308° |
| 2026-05-03 20:42 | 25.11008 | 102.92787 | 6913 ft | 10 kts | 308° |
| 2026-05-03 20:42 | 25.11049 | 102.92729 | 6915 ft | 10 kts | 307° |
| 2026-05-03 20:42 | 25.11051 | 102.92661 | 6918 ft | 9 kts | 234° |
| 2026-05-03 20:42 | 25.11001 | 102.92615 | 6911 ft | 9 kts | 218° |
| 2026-05-03 20:43 | 25.10949 | 102.92571 | 6910 ft | 10 kts | 217° |
| 2026-05-03 20:43 | 25.10895 | 102.92525 | 6907 ft | 10 kts | 218° |
| 2026-05-03 20:43 | 25.10840 | 102.92477 | 6910 ft | 10 kts | 219° |
| 2026-05-03 20:43 | 25.10785 | 102.92428 | 6908 ft | 10 kts | 219° |
| 2026-05-03 20:44 | 25.10729 | 102.92379 | 6914 ft | 10 kts | 218° |
| 2026-05-03 20:44 | 25.10672 | 102.92328 | 6909 ft | 11 kts | 218° |
| 2026-05-03 20:44 | 25.10612 | 102.92276 | 6917 ft | 11 kts | 218° |
| 2026-05-03 20:44 | 25.10551 | 102.92223 | 6914 ft | 11 kts | 218° |
| 2026-05-03 20:45 | 25.10489 | 102.92170 | 6916 ft | 11 kts | 218° |
| 2026-05-03 20:45 | 25.10424 | 102.92115 | 6910 ft | 12 kts | 217° |
| 2026-05-03 20:45 | 25.10357 | 102.92057 | 6910 ft | 12 kts | 218° |
| 2026-05-03 20:45 | 25.10289 | 102.91997 | 6910 ft | 13 kts | 218° |
| 2026-05-03 20:46 | 25.10218 | 102.91935 | 6911 ft | 13 kts | 219° |
| 2026-05-03 20:46 | 25.10155 | 102.91875 | 6917 ft | 10 kts | 233° |
| 2026-05-03 20:46 | 25.10163 | 102.91804 | 6913 ft | 10 kts | 304° |
| 2026-05-03 20:46 | 25.10207 | 102.91745 | 6913 ft | 10 kts | 314° |
| 2026-05-03 20:47 | 25.10270 | 102.91734 | 6914 ft | 10 kts | 33° |
| 2026-05-03 20:47 | 25.10326 | 102.91782 | 6912 ft | 11 kts | 38° |
| 2026-05-03 20:47 | 25.10451 | 102.91894 | 6912 ft | 50 kts | 38° |
| 2026-05-03 20:47 | 25.10899 | 102.92278 | 6912 ft | 111 kts | 38° |
| 2026-05-03 20:48 | 25.11642 | 102.92929 | 6911 ft | 160 kts | 38° |
| 2026-05-03 20:48 | 25.12582 | 102.93724 | 7181 ft | 177 kts | 39° |
| 2026-05-03 20:48 | 25.13565 | 102.94582 | 7807 ft | 187 kts | 34° |
| 2026-05-03 20:48 | 25.14759 | 102.95283 | 8311 ft | 203 kts | 21° |
| 2026-05-03 20:49 | 25.16119 | 102.95899 | 8838 ft | 214 kts | 21° |
| 2026-05-03 20:49 | 25.17525 | 102.96550 | 9472 ft | 227 kts | 22° |
| 2026-05-03 20:49 | 25.19059 | 102.97240 | 9874 ft | 250 kts | 15° |
| 2026-05-03 20:49 | 25.20825 | 102.97331 | 10336 ft | 264 kts | 343° |
| 2026-05-03 20:50 | 25.22435 | 102.96339 | 10913 ft | 272 kts | 313° |
| 2026-05-03 20:50 | 25.23408 | 102.94551 | 11585 ft | 277 kts | 283° |
| 2026-05-03 20:50 | 25.23432 | 102.92440 | 12355 ft | 282 kts | 257° |
| 2026-05-03 20:50 | 25.22637 | 102.90406 | 12877 ft | 297 kts | 247° |
| 2026-05-03 20:51 | 25.21817 | 102.88233 | 13266 ft | 317 kts | 249° |
| 2026-05-03 20:51 | 25.20975 | 102.85902 | 13657 ft | 335 kts | 249° |
| 2026-05-03 20:51 | 25.20094 | 102.83473 | 14205 ft | 344 kts | 249° |
| 2026-05-03 20:51 | 25.19190 | 102.81028 | 14963 ft | 346 kts | 249° |
| 2026-05-03 20:52 | 25.18269 | 102.78564 | 15674 ft | 349 kts | 249° |
| 2026-05-03 20:52 | 25.17332 | 102.76077 | 16350 ft | 352 kts | 249° |
| 2026-05-03 20:52 | 25.16389 | 102.73583 | 17029 ft | 354 kts | 249° |
| 2026-05-03 20:52 | 25.15431 | 102.71060 | 17635 ft | 358 kts | 249° |
| 2026-05-03 20:53 | 25.14464 | 102.68514 | 18308 ft | 361 kts | 249° |
| 2026-05-03 20:53 | 25.13490 | 102.65952 | 18874 ft | 363 kts | 249° |
| 2026-05-03 20:53 | 25.12506 | 102.63368 | 19411 ft | 366 kts | 249° |
| 2026-05-03 20:53 | 25.11516 | 102.60768 | 19931 ft | 369 kts | 249° |
| 2026-05-03 20:54 | 25.10518 | 102.58153 | 20467 ft | 371 kts | 249° |
| 2026-05-03 20:54 | 25.08497 | 102.52866 | 21496 ft | 376 kts | 249° |
| 2026-05-03 20:54 | 25.07310 | 102.50320 | 21998 ft | 380 kts | 245° |
| 2026-05-03 20:55 | 25.06060 | 102.47738 | 22488 ft | 382 kts | 245° |
| 2026-05-03 20:55 | 25.04814 | 102.45137 | 22972 ft | 385 kts | 245° |
| 2026-05-03 20:55 | 25.03566 | 102.42514 | 23416 ft | 387 kts | 245° |
| 2026-05-03 20:55 | 25.02311 | 102.39875 | 23862 ft | 390 kts | 245° |
| 2026-05-03 20:56 | 25.01051 | 102.37220 | 24237 ft | 391 kts | 245° |
| 2026-05-03 20:56 | 24.99790 | 102.34566 | 24682 ft | 392 kts | 245° |
| 2026-05-03 20:56 | 24.98544 | 102.31945 | 25088 ft | 393 kts | 245° |
| 2026-05-03 20:56 | 24.97255 | 102.29236 | 25514 ft | 393 kts | 245° |
| 2026-05-03 20:57 | 24.95983 | 102.26563 | 25907 ft | 395 kts | 246° |
| 2026-05-03 20:57 | 24.94706 | 102.23881 | 26320 ft | 396 kts | 246° |
| 2026-05-03 20:57 | 24.93423 | 102.21188 | 26722 ft | 397 kts | 246° |
| 2026-05-03 20:57 | 24.92137 | 102.18491 | 27124 ft | 398 kts | 246° |
| 2026-05-03 20:58 | 24.90847 | 102.15787 | 27543 ft | 399 kts | 246° |
| 2026-05-03 20:58 | 24.89552 | 102.13074 | 27932 ft | 401 kts | 246° |
| 2026-05-03 20:58 | 24.88252 | 102.10352 | 28289 ft | 402 kts | 246° |
| 2026-05-03 20:58 | 24.86945 | 102.07616 | 28659 ft | 404 kts | 246° |
| 2026-05-03 20:59 | 24.85635 | 102.04878 | 28988 ft | 406 kts | 246° |
| 2026-05-03 20:59 | 24.84315 | 102.02119 | 29324 ft | 407 kts | 246° |
| 2026-05-03 20:59 | 24.82992 | 101.99355 | 29687 ft | 409 kts | 246° |
| 2026-05-03 20:59 | 24.81665 | 101.96586 | 30031 ft | 409 kts | 246° |
| 2026-05-03 21:00 | 24.80331 | 101.93802 | 30342 ft | 411 kts | 246° |
| 2026-05-03 21:00 | 24.79899 | 101.92901 | 30429 ft | 412 kts | 246° |
| 2026-05-03 21:00 | 24.77663 | 101.88241 | 30772 ft | 416 kts | 246° |
| 2026-05-03 21:00 | 24.76308 | 101.85419 | 31034 ft | 418 kts | 246° |
| 2026-05-03 21:01 | 24.74946 | 101.82583 | 31272 ft | 420 kts | 245° |
| 2026-05-03 21:01 | 24.73577 | 101.79737 | 31568 ft | 420 kts | 246° |
| 2026-05-03 21:01 | 24.72211 | 101.76896 | 31866 ft | 420 kts | 245° |
| 2026-05-03 21:01 | 24.71306 | 101.75016 | 32056 ft | 420 kts | 246° |
| 2026-05-03 21:02 | 24.69938 | 101.72175 | 32342 ft | 420 kts | 246° |
| 2026-05-03 21:02 | 24.68567 | 101.69330 | 32658 ft | 420 kts | 246° |
| 2026-05-03 21:02 | 24.67201 | 101.66497 | 32950 ft | 420 kts | 246° |
| 2026-05-03 21:02 | 24.65826 | 101.63646 | 33262 ft | 420 kts | 246° |
| 2026-05-03 21:03 | 24.64455 | 101.60806 | 33556 ft | 421 kts | 245° |
| 2026-05-03 21:03 | 24.63085 | 101.57966 | 33845 ft | 420 kts | 245° |
| 2026-05-03 21:03 | 24.61698 | 101.55139 | 34141 ft | 421 kts | 245° |
| 2026-05-03 21:03 | 24.60302 | 101.52310 | 34428 ft | 420 kts | 245° |
| 2026-05-03 21:04 | 24.58931 | 101.49527 | 34675 ft | 420 kts | 245° |
| 2026-05-03 21:04 | 24.57533 | 101.46704 | 34842 ft | 422 kts | 245° |
| 2026-05-03 21:04 | 24.56148 | 101.43871 | 35099 ft | 421 kts | 245° |
| 2026-05-03 21:04 | 24.54746 | 101.41039 | 35334 ft | 422 kts | 245° |
| 2026-05-03 21:05 | 24.53349 | 101.38208 | 35541 ft | 422 kts | 245° |
| 2026-05-03 21:05 | 24.51948 | 101.35370 | 35781 ft | 422 kts | 245° |
| 2026-05-03 21:05 | 24.50544 | 101.32532 | 35987 ft | 422 kts | 245° |
| 2026-05-03 21:05 | 24.49146 | 101.29703 | 36222 ft | 422 kts | 244° |
| 2026-05-03 21:06 | 24.46340 | 101.24035 | 36293 ft | 421 kts | 244° |
| 2026-05-03 21:06 | 24.43548 | 101.18401 | 36294 ft | 420 kts | 244° |
| 2026-05-03 21:07 | 24.40772 | 101.12804 | 36278 ft | 421 kts | 244° |
| 2026-05-03 21:07 | 24.37968 | 101.07160 | 36273 ft | 420 kts | 244° |
| 2026-05-03 21:08 | 24.35163 | 101.01520 | 36265 ft | 421 kts | 244° |
| 2026-05-03 21:08 | 24.32356 | 100.95882 | 36235 ft | 421 kts | 244° |
| 2026-05-03 21:09 | 24.29545 | 100.90242 | 36237 ft | 421 kts | 244° |
| 2026-05-03 21:09 | 24.26729 | 100.84600 | 36237 ft | 423 kts | 244° |
| 2026-05-03 21:10 | 24.23909 | 100.78957 | 36219 ft | 421 kts | 244° |
| 2026-05-03 21:10 | 24.21095 | 100.73333 | 36225 ft | 421 kts | 244° |
| 2026-05-03 21:11 | 24.18291 | 100.67733 | 36221 ft | 422 kts | 244° |
| 2026-05-03 21:11 | 24.15527 | 100.62076 | 36217 ft | 422 kts | 243° |
| 2026-05-03 21:12 | 24.12650 | 100.56471 | 36194 ft | 422 kts | 244° |
| 2026-05-03 21:12 | 24.09763 | 100.50851 | 36185 ft | 423 kts | 244° |
| 2026-05-03 21:13 | 24.06893 | 100.45247 | 36182 ft | 422 kts | 244° |
| 2026-05-03 21:13 | 24.04018 | 100.39627 | 36146 ft | 423 kts | 244° |
| 2026-05-03 21:14 | 24.01129 | 100.34003 | 36135 ft | 423 kts | 244° |
| 2026-05-03 21:14 | 23.98246 | 100.28395 | 36172 ft | 424 kts | 244° |
| 2026-05-03 21:15 | 23.95376 | 100.22815 | 36177 ft | 424 kts | 243° |
| 2026-05-03 21:15 | 23.92480 | 100.17192 | 36157 ft | 425 kts | 243° |
| 2026-05-03 21:16 | 23.89577 | 100.11559 | 36152 ft | 425 kts | 243° |
| 2026-05-03 21:16 | 23.86671 | 100.05930 | 36146 ft | 425 kts | 243° |
| 2026-05-03 21:17 | 23.84248 | 100.01239 | 36164 ft | 428 kts | 243° |
| 2026-05-03 21:17 | 23.80834 | 99.94637 | 36155 ft | 426 kts | 243° |
| 2026-05-03 21:18 | 23.77907 | 99.88986 | 36147 ft | 427 kts | 243° |
| 2026-05-03 21:18 | 23.74977 | 99.83328 | 36137 ft | 429 kts | 243° |
| 2026-05-03 21:19 | 23.72057 | 99.77709 | 36147 ft | 427 kts | 243° |
| 2026-05-03 21:19 | 23.69122 | 99.72063 | 36135 ft | 428 kts | 243° |
| 2026-05-03 21:20 | 23.66178 | 99.66402 | 36134 ft | 428 kts | 243° |
| 2026-05-03 21:20 | 23.63235 | 99.60753 | 36126 ft | 429 kts | 243° |
| 2026-05-03 21:21 | 23.60285 | 99.55095 | 36129 ft | 429 kts | 243° |
| 2026-05-03 21:21 | 23.57344 | 99.49461 | 36126 ft | 429 kts | 243° |
| 2026-05-03 21:22 | 23.54389 | 99.43805 | 36127 ft | 429 kts | 243° |
| 2026-05-03 21:22 | 23.51466 | 99.38134 | 36123 ft | 429 kts | 243° |
| 2026-05-03 21:23 | 23.48554 | 99.32449 | 36129 ft | 429 kts | 243° |
| 2026-05-03 21:23 | 23.45643 | 99.26777 | 36114 ft | 428 kts | 243° |
| 2026-05-03 21:24 | 23.42750 | 99.21144 | 36109 ft | 430 kts | 243° |
| 2026-05-03 21:24 | 23.39825 | 99.15456 | 36112 ft | 430 kts | 243° |
| 2026-05-03 21:25 | 23.36900 | 99.09773 | 36088 ft | 430 kts | 243° |
| 2026-05-03 21:25 | 23.33968 | 99.04086 | 36111 ft | 431 kts | 243° |
| 2026-05-03 21:26 | 23.31039 | 98.98409 | 36105 ft | 431 kts | 243° |
| 2026-05-03 21:26 | 23.28102 | 98.92724 | 36104 ft | 431 kts | 243° |
| 2026-05-03 21:27 | 23.25159 | 98.87035 | 36113 ft | 432 kts | 243° |
| 2026-05-03 21:27 | 23.22218 | 98.81353 | 36057 ft | 430 kts | 243° |
| 2026-05-03 21:28 | 23.19268 | 98.75663 | 36109 ft | 432 kts | 243° |
| 2026-05-03 21:28 | 23.16343 | 98.70027 | 36106 ft | 430 kts | 243° |
| 2026-05-03 21:29 | 23.13398 | 98.64357 | 36132 ft | 431 kts | 243° |
| 2026-05-03 21:29 | 23.10446 | 98.58682 | 36073 ft | 429 kts | 243° |
| 2026-05-03 21:30 | 23.07500 | 98.53027 | 36054 ft | 430 kts | 243° |
| 2026-05-03 21:30 | 23.04549 | 98.47366 | 36091 ft | 431 kts | 243° |
| 2026-05-03 21:31 | 23.03073 | 98.44536 | 36207 ft | 429 kts | 243° |
| 2026-05-03 21:31 | 23.01602 | 98.41718 | 36366 ft | 429 kts | 243° |
| 2026-05-03 21:31 | 23.00130 | 98.38901 | 36531 ft | 430 kts | 243° |
| 2026-05-03 21:31 | 22.98655 | 98.36078 | 36678 ft | 430 kts | 243° |
| 2026-05-03 21:32 | 22.97179 | 98.33255 | 36837 ft | 430 kts | 243° |
| 2026-05-03 21:32 | 22.95700 | 98.30429 | 36990 ft | 430 kts | 243° |
| 2026-05-03 21:32 | 22.94242 | 98.27644 | 37154 ft | 430 kts | 243° |
| 2026-05-03 21:32 | 22.92749 | 98.24793 | 37304 ft | 429 kts | 243° |
| 2026-05-03 21:33 | 22.91291 | 98.22010 | 37463 ft | 429 kts | 243° |
| 2026-05-03 21:33 | 22.89816 | 98.19197 | 37650 ft | 429 kts | 243° |
| 2026-05-03 21:33 | 22.88339 | 98.16383 | 37805 ft | 429 kts | 243° |
| 2026-05-03 21:33 | 22.86863 | 98.13571 | 37960 ft | 429 kts | 243° |
| 2026-05-03 21:34 | 22.83916 | 98.07961 | 37987 ft | 427 kts | 243° |
| 2026-05-03 21:34 | 22.80970 | 98.02360 | 37988 ft | 427 kts | 243° |
| 2026-05-03 21:35 | 22.78023 | 97.96762 | 37983 ft | 427 kts | 243° |
| 2026-05-03 21:35 | 22.75073 | 97.91167 | 37974 ft | 428 kts | 243° |
| 2026-05-03 21:36 | 22.72135 | 97.85598 | 37967 ft | 428 kts | 243° |
| 2026-05-03 21:36 | 22.69177 | 97.79996 | 37969 ft | 429 kts | 243° |
| 2026-05-03 21:37 | 22.66216 | 97.74395 | 37960 ft | 429 kts | 243° |
| 2026-05-03 21:37 | 22.62697 | 97.69187 | 37962 ft | 436 kts | 223° |
| 2026-05-03 21:38 | 22.60144 | 97.67381 | 37948 ft | 445 kts | 209° |
| 2026-05-03 21:38 | 22.57195 | 97.66281 | 37969 ft | 453 kts | 199° |
| 2026-05-03 21:38 | 22.51027 | 97.64694 | 37968 ft | 456 kts | 197° |
| 2026-05-03 21:39 | 22.44818 | 97.63249 | 37947 ft | 457 kts | 197° |
| 2026-05-03 21:39 | 22.38590 | 97.61845 | 37945 ft | 457 kts | 196° |
| 2026-05-03 21:40 | 22.32370 | 97.60450 | 37960 ft | 457 kts | 196° |
| 2026-05-03 21:40 | 22.26175 | 97.59063 | 37960 ft | 457 kts | 196° |
| 2026-05-03 21:41 | 22.19938 | 97.57667 | 37960 ft | 457 kts | 196° |
| 2026-05-03 21:41 | 22.13719 | 97.56277 | 37962 ft | 457 kts | 196° |
| 2026-05-03 21:42 | 22.07487 | 97.54885 | 37966 ft | 457 kts | 196° |
| 2026-05-03 21:42 | 22.01288 | 97.53501 | 37969 ft | 457 kts | 195° |
| 2026-05-03 21:43 | 21.95057 | 97.52112 | 37966 ft | 457 kts | 195° |
| 2026-05-03 21:43 | 21.88880 | 97.50736 | 37970 ft | 456 kts | 195° |
| 2026-05-03 21:44 | 21.82646 | 97.49349 | 37968 ft | 456 kts | 195° |
| 2026-05-03 21:44 | 21.76430 | 97.47967 | 37965 ft | 455 kts | 195° |
| 2026-05-03 21:45 | 21.70220 | 97.46587 | 37968 ft | 455 kts | 195° |
| 2026-05-03 21:45 | 21.64023 | 97.45211 | 37975 ft | 455 kts | 195° |
| 2026-05-03 21:46 | 21.57860 | 97.43844 | 37968 ft | 455 kts | 195° |
| 2026-05-03 21:46 | 21.51648 | 97.42467 | 37969 ft | 455 kts | 195° |
| 2026-05-03 21:47 | 21.45445 | 97.41094 | 37968 ft | 455 kts | 195° |
| 2026-05-03 21:47 | 21.39241 | 97.39722 | 37975 ft | 455 kts | 195° |
| 2026-05-03 21:48 | 21.33035 | 97.38350 | 37975 ft | 455 kts | 195° |
| 2026-05-03 21:48 | 21.26836 | 97.36981 | 37972 ft | 455 kts | 195° |
| 2026-05-03 21:49 | 21.20633 | 97.35613 | 37969 ft | 455 kts | 195° |
| 2026-05-03 21:49 | 21.14459 | 97.34251 | 37972 ft | 455 kts | 195° |
| 2026-05-03 21:50 | 21.08259 | 97.32886 | 37981 ft | 455 kts | 195° |
| 2026-05-03 21:50 | 21.02058 | 97.31521 | 37968 ft | 455 kts | 195° |
| 2026-05-03 21:51 | 20.95850 | 97.30156 | 37989 ft | 455 kts | 195° |
| 2026-05-03 21:51 | 20.90694 | 97.29023 | 37981 ft | 455 kts | 195° |
| 2026-05-03 21:52 | 20.84484 | 97.27660 | 37987 ft | 455 kts | 195° |
| 2026-05-03 21:52 | 20.78282 | 97.26299 | 37985 ft | 454 kts | 195° |
| 2026-05-03 21:53 | 20.72094 | 97.24943 | 37987 ft | 454 kts | 195° |
| 2026-05-03 21:53 | 20.65907 | 97.23588 | 37983 ft | 453 kts | 195° |
| 2026-05-03 21:54 | 20.59729 | 97.22237 | 37981 ft | 453 kts | 195° |
| 2026-05-03 21:54 | 20.53558 | 97.20887 | 37985 ft | 452 kts | 195° |
| 2026-05-03 21:55 | 20.47393 | 97.19541 | 37978 ft | 452 kts | 195° |
| 2026-05-03 21:55 | 20.41270 | 97.18204 | 37977 ft | 452 kts | 195° |
| 2026-05-03 21:56 | 20.35104 | 97.16859 | 37974 ft | 452 kts | 195° |
| 2026-05-03 21:56 | 20.28947 | 97.15518 | 37971 ft | 452 kts | 195° |
| 2026-05-03 21:57 | 20.22782 | 97.14175 | 37967 ft | 452 kts | 195° |
| 2026-05-03 21:57 | 20.16613 | 97.12833 | 37968 ft | 452 kts | 195° |
| 2026-05-03 21:58 | 20.10451 | 97.11494 | 37961 ft | 452 kts | 195° |
| 2026-05-03 21:58 | 20.04273 | 97.10152 | 37978 ft | 453 kts | 195° |
| 2026-05-03 21:59 | 19.98108 | 97.08814 | 37960 ft | 452 kts | 195° |
| 2026-05-03 21:59 | 19.91934 | 97.07475 | 37959 ft | 453 kts | 195° |
| 2026-05-03 22:00 | 19.85756 | 97.06136 | 37956 ft | 452 kts | 195° |
| 2026-05-03 22:00 | 19.79625 | 97.04808 | 37954 ft | 453 kts | 195° |
| 2026-05-03 22:01 | 19.73454 | 97.03473 | 37959 ft | 453 kts | 195° |
| 2026-05-03 22:01 | 19.67279 | 97.02138 | 37961 ft | 453 kts | 195° |
| 2026-05-03 22:02 | 19.61089 | 97.00801 | 37963 ft | 453 kts | 195° |
| 2026-05-03 22:02 | 19.54916 | 96.99469 | 37966 ft | 453 kts | 195° |
| 2026-05-03 22:03 | 19.48729 | 96.98135 | 37963 ft | 453 kts | 195° |
| 2026-05-03 22:03 | 19.42584 | 96.96810 | 37946 ft | 453 kts | 195° |
| 2026-05-03 22:04 | 19.36404 | 96.95480 | 37951 ft | 454 kts | 194° |
| 2026-05-03 22:04 | 19.30216 | 96.94148 | 37957 ft | 454 kts | 195° |
| 2026-05-03 22:05 | 19.24014 | 96.92815 | 37949 ft | 454 kts | 195° |
| 2026-05-03 22:05 | 19.17816 | 96.91483 | 37948 ft | 455 kts | 194° |
| 2026-05-03 22:06 | 19.11616 | 96.90152 | 37957 ft | 455 kts | 194° |
| 2026-05-03 22:06 | 19.05414 | 96.88822 | 37933 ft | 454 kts | 194° |
| 2026-05-03 22:07 | 18.99215 | 96.87493 | 37929 ft | 455 kts | 194° |
| 2026-05-03 22:07 | 18.96118 | 96.86830 | 37784 ft | 450 kts | 194° |
| 2026-05-03 22:07 | 18.93091 | 96.86182 | 37046 ft | 451 kts | 194° |
| 2026-05-03 22:08 | 18.89994 | 96.85519 | 36246 ft | 454 kts | 194° |
| 2026-05-03 22:08 | 18.86891 | 96.84855 | 35508 ft | 456 kts | 194° |
| 2026-05-03 22:08 | 18.83776 | 96.84188 | 34785 ft | 458 kts | 194° |
| 2026-05-03 22:08 | 18.80646 | 96.83519 | 34036 ft | 460 kts | 194° |
| 2026-05-03 22:09 | 18.77496 | 96.82846 | 33159 ft | 463 kts | 194° |
| 2026-05-03 22:09 | 18.74328 | 96.82169 | 32326 ft | 465 kts | 194° |
| 2026-05-03 22:09 | 18.71154 | 96.81491 | 31635 ft | 464 kts | 194° |
| 2026-05-03 22:10 | 18.64864 | 96.80149 | 30494 ft | 457 kts | 193° |
| 2026-05-03 22:10 | 18.61743 | 96.79483 | 29876 ft | 455 kts | 193° |
| 2026-05-03 22:10 | 18.58644 | 96.78821 | 29174 ft | 453 kts | 193° |
| 2026-05-03 22:10 | 18.55567 | 96.78165 | 28565 ft | 450 kts | 193° |
| 2026-05-03 22:11 | 18.52513 | 96.77515 | 27982 ft | 446 kts | 193° |
| 2026-05-03 22:11 | 18.49487 | 96.76870 | 27402 ft | 442 kts | 193° |
| 2026-05-03 22:11 | 18.46474 | 96.76228 | 26820 ft | 439 kts | 193° |
| 2026-05-03 22:11 | 18.43479 | 96.75591 | 26241 ft | 437 kts | 193° |
| 2026-05-03 22:12 | 18.40546 | 96.74967 | 25679 ft | 435 kts | 194° |
| 2026-05-03 22:12 | 18.37556 | 96.74331 | 25101 ft | 433 kts | 194° |
| 2026-05-03 22:12 | 18.34650 | 96.73713 | 24540 ft | 431 kts | 194° |
| 2026-05-03 22:12 | 18.31708 | 96.73088 | 23976 ft | 430 kts | 194° |
| 2026-05-03 22:13 | 18.28789 | 96.72468 | 23400 ft | 428 kts | 194° |
| 2026-05-03 22:13 | 18.25867 | 96.71847 | 22760 ft | 426 kts | 194° |
| 2026-05-03 22:13 | 18.22970 | 96.71232 | 22205 ft | 423 kts | 194° |
| 2026-05-03 22:13 | 18.20094 | 96.70621 | 21668 ft | 419 kts | 194° |
| 2026-05-03 22:14 | 18.17251 | 96.70018 | 21149 ft | 415 kts | 194° |
| 2026-05-03 22:14 | 18.14433 | 96.69420 | 20636 ft | 411 kts | 194° |
| 2026-05-03 22:14 | 18.11640 | 96.68828 | 20131 ft | 408 kts | 194° |
| 2026-05-03 22:14 | 18.08869 | 96.68240 | 19636 ft | 405 kts | 194° |
| 2026-05-03 22:15 | 18.06120 | 96.67658 | 19150 ft | 402 kts | 194° |
| 2026-05-03 22:15 | 18.03387 | 96.67079 | 18666 ft | 399 kts | 194° |
| 2026-05-03 22:15 | 18.00684 | 96.66506 | 18189 ft | 396 kts | 194° |
| 2026-05-03 22:15 | 17.97993 | 96.65937 | 17660 ft | 393 kts | 194° |
| 2026-05-03 22:16 | 17.95318 | 96.65371 | 17165 ft | 389 kts | 194° |
| 2026-05-03 22:16 | 17.92709 | 96.64819 | 16699 ft | 385 kts | 194° |
| 2026-05-03 22:16 | 17.90097 | 96.64267 | 16262 ft | 381 kts | 194° |
| 2026-05-03 22:16 | 17.87506 | 96.63719 | 15822 ft | 377 kts | 194° |
| 2026-05-03 22:17 | 17.84944 | 96.63177 | 15380 ft | 374 kts | 194° |
| 2026-05-03 22:17 | 17.82409 | 96.62641 | 14941 ft | 371 kts | 193° |
| 2026-05-03 22:17 | 17.79883 | 96.62108 | 14504 ft | 368 kts | 193° |
| 2026-05-03 22:17 | 17.77381 | 96.61579 | 14075 ft | 366 kts | 193° |
| 2026-05-03 22:18 | 17.74895 | 96.61054 | 13640 ft | 363 kts | 193° |
| 2026-05-03 22:18 | 17.72422 | 96.60532 | 13158 ft | 361 kts | 193° |
| 2026-05-03 22:18 | 17.69972 | 96.60014 | 12721 ft | 358 kts | 193° |
| 2026-05-03 22:18 | 17.67543 | 96.59502 | 12282 ft | 354 kts | 193° |
| 2026-05-03 22:19 | 17.65135 | 96.58994 | 11865 ft | 351 kts | 193° |
| 2026-05-03 22:19 | 17.62749 | 96.58491 | 11449 ft | 348 kts | 193° |
| 2026-05-03 22:19 | 17.60381 | 96.57991 | 11030 ft | 346 kts | 193° |
| 2026-05-03 22:19 | 17.58049 | 96.57500 | 10773 ft | 338 kts | 193° |
| 2026-05-03 22:20 | 17.55776 | 96.57020 | 10607 ft | 328 kts | 193° |
| 2026-05-03 22:20 | 17.53569 | 96.56556 | 10443 ft | 319 kts | 193° |
| 2026-05-03 22:20 | 17.51426 | 96.56104 | 10275 ft | 310 kts | 193° |
| 2026-05-03 22:20 | 17.49338 | 96.55664 | 10127 ft | 301 kts | 193° |
| 2026-05-03 22:21 | 17.47315 | 96.55238 | 9978 ft | 292 kts | 193° |
| 2026-05-03 22:21 | 17.45336 | 96.54822 | 9729 ft | 288 kts | 193° |
| 2026-05-03 22:21 | 17.43372 | 96.54409 | 9375 ft | 287 kts | 193° |
| 2026-05-03 22:21 | 17.41419 | 96.53998 | 9038 ft | 286 kts | 193° |
| 2026-05-03 22:22 | 17.39469 | 96.53588 | 8707 ft | 284 kts | 193° |
| 2026-05-03 22:22 | 17.37539 | 96.53182 | 8384 ft | 283 kts | 193° |
| 2026-05-03 22:22 | 17.35639 | 96.52782 | 8088 ft | 280 kts | 192° |
| 2026-05-03 22:22 | 17.33755 | 96.52386 | 7968 ft | 271 kts | 193° |
| 2026-05-03 22:23 | 17.31997 | 96.51805 | 7769 ft | 263 kts | 212° |
| 2026-05-03 22:23 | 17.30652 | 96.50556 | 7532 ft | 257 kts | 227° |
| 2026-05-03 22:23 | 17.29435 | 96.49208 | 7318 ft | 252 kts | 227° |
| 2026-05-03 22:23 | 17.28237 | 96.47874 | 7098 ft | 252 kts | 227° |
| 2026-05-03 22:24 | 17.27040 | 96.46532 | 6867 ft | 253 kts | 227° |
| 2026-05-03 22:24 | 17.26031 | 96.45397 | 6679 ft | 254 kts | 227° |
| 2026-05-03 22:24 | 17.24830 | 96.44042 | 6442 ft | 254 kts | 227° |
| 2026-05-03 22:24 | 17.23630 | 96.42687 | 6191 ft | 254 kts | 227° |
| 2026-05-03 22:25 | 17.22435 | 96.41338 | 5968 ft | 250 kts | 227° |
| 2026-05-03 22:25 | 17.21265 | 96.40015 | 5800 ft | 244 kts | 227° |
| 2026-05-03 22:25 | 17.20128 | 96.38731 | 5632 ft | 238 kts | 227° |
| 2026-05-03 22:25 | 17.19013 | 96.37473 | 5417 ft | 233 kts | 227° |
| 2026-05-03 22:26 | 17.17921 | 96.36238 | 5196 ft | 229 kts | 227° |
| 2026-05-03 22:26 | 17.16846 | 96.35024 | 4990 ft | 225 kts | 227° |
| 2026-05-03 22:26 | 17.15792 | 96.33834 | 4784 ft | 221 kts | 227° |
| 2026-05-03 22:26 | 17.14754 | 96.32665 | 4576 ft | 217 kts | 227° |
| 2026-05-03 22:27 | 17.13732 | 96.31514 | 4347 ft | 215 kts | 227° |
| 2026-05-03 22:27 | 17.12729 | 96.30385 | 4161 ft | 207 kts | 227° |
| 2026-05-03 22:27 | 17.11774 | 96.29310 | 3971 ft | 198 kts | 227° |
| 2026-05-03 22:27 | 17.10863 | 96.28286 | 3774 ft | 190 kts | 227° |
| 2026-05-03 22:28 | 17.09969 | 96.27279 | 3640 ft | 190 kts | 228° |
| 2026-05-03 22:28 | 17.09074 | 96.26260 | 3542 ft | 190 kts | 226° |
| 2026-05-03 22:28 | 17.08098 | 96.25336 | 3447 ft | 187 kts | 219° |
| 2026-05-03 22:28 | 17.07062 | 96.24529 | 3269 ft | 184 kts | 216° |
| 2026-05-03 22:29 | 17.06008 | 96.23781 | 3062 ft | 182 kts | 214° |
| 2026-05-03 22:29 | 17.04950 | 96.23051 | 2835 ft | 182 kts | 214° |
| 2026-05-03 22:29 | 17.03893 | 96.22327 | 2621 ft | 181 kts | 214° |
| 2026-05-03 22:29 | 17.02842 | 96.21607 | 2406 ft | 180 kts | 214° |
| 2026-05-03 22:30 | 17.01796 | 96.20891 | 2182 ft | 179 kts | 214° |
| 2026-05-03 22:30 | 17.00774 | 96.20191 | 1982 ft | 172 kts | 215° |
| 2026-05-03 22:30 | 16.99787 | 96.19515 | 1748 ft | 167 kts | 215° |
| 2026-05-03 22:30 | 16.98824 | 96.18856 | 1535 ft | 165 kts | 215° |
| 2026-05-03 22:31 | 16.97866 | 96.18199 | 1316 ft | 164 kts | 215° |
| 2026-05-03 22:31 | 16.96907 | 96.17544 | 1107 ft | 165 kts | 215° |
| 2026-05-03 22:31 | 16.95957 | 96.16893 | 922 ft | 159 kts | 214° |
| 2026-05-03 22:31 | 16.95144 | 96.16335 | 722 ft | 153 kts | 213° |
| 2026-05-03 22:32 | 16.94264 | 96.15735 | 517 ft | 150 kts | 212° |
| 2026-05-03 22:32 | 16.93393 | 96.15147 | 377 ft | 149 kts | 212° |
| 2026-05-03 22:32 | 16.92524 | 96.14552 | 200 ft | 149 kts | 213° |
| 2026-05-03 22:32 | 16.91704 | 96.13992 | 98 ft | 125 kts | 213° |
| 2026-05-03 22:33 | 16.91107 | 96.13586 | 100 ft | 80 kts | 214° |
| 2026-05-03 22:33 | 16.90738 | 96.13336 | 101 ft | 55 kts | 212° |
| 2026-05-03 22:33 | 16.90449 | 96.13146 | 99 ft | 34 kts | 212° |
| 2026-05-03 22:33 | 16.90244 | 96.13094 | 98 ft | 10 kts | 183° |
| 2026-05-03 22:34 | 16.90182 | 96.13091 | 99 ft | 9 kts | 182° |
| 2026-05-03 22:34 | 16.90133 | 96.13122 | 100 ft | 9 kts | 108° |
| 2026-05-03 22:34 | 16.90165 | 96.13181 | 100 ft | 12 kts | 35° |
| 2026-05-03 22:34 | 16.90240 | 96.13233 | 100 ft | 14 kts | 32° |
| 2026-05-03 22:35 | 16.90326 | 96.13290 | 101 ft | 15 kts | 32° |
| 2026-05-03 22:35 | 16.90357 | 96.13334 | 101 ft | 7 kts | 92° |
| 2026-05-03 22:35 | 16.90332 | 96.13386 | 103 ft | 9 kts | 123° |
| 2026-05-03 22:35 | 16.90303 | 96.13432 | 104 ft | 3 kts | 122° |
| 2026-05-03 22:36 | 16.90299 | 96.13438 | 104 ft | 0 kts | 121° |